sensor_id;sensor_type;location;lat;lon;timestamp;P1;durP1;ratioP1;P2;durP2;ratioP2
21894;SDS011;11112;51.270;7.224;2023-02-25T00:01:34;17.05;;;3.50;;
21894;SDS011;11112;51.270;7.224;2023-02-25T00:04:01;20.63;;;3.85;;
21894;SDS011;11112;51.270;7.224;2023-02-25T00:06:29;22.67;;;3.97;;
21894;SDS011;11112;51.270;7.224;2023-02-25T00:08:56;20.23;;;3.67;;
21894;SDS011;11112;51.270;7.224;2023-02-25T00:11:24;27.25;;;3.78;;
21894;SDS011;11112;51.270;7.224;2023-02-25T00:13:51;17.77;;;3.90;;
21894;SDS011;11112;51.270;7.224;2023-02-25T00:16:20;18.95;;;4.10;;
21894;SDS011;11112;51.270;7.224;2023-02-25T00:18:53;20.08;;;3.58;;
21894;SDS011;11112;51.270;7.224;2023-02-25T00:21:22;18.73;;;3.65;;
21894;SDS011;11112;51.270;7.224;2023-02-25T00:23:51;18.30;;;4.05;;
21894;SDS011;11112;51.270;7.224;2023-02-25T00:26:18;18.55;;;3.80;;
21894;SDS011;11112;51.270;7.224;2023-02-25T00:28:46;19.00;;;3.92;;
21894;SDS011;11112;51.270;7.224;2023-02-25T00:31:15;16.45;;;3.30;;
21894;SDS011;11112;51.270;7.224;2023-02-25T00:33:44;20.63;;;3.63;;
21894;SDS011;11112;51.270;7.224;2023-02-25T00:36:15;13.90;;;3.42;;
21894;SDS011;11112;51.270;7.224;2023-02-25T00:38:44;17.25;;;3.40;;
21894;SDS011;11112;51.270;7.224;2023-02-25T00:41:13;20.70;;;3.50;;
21894;SDS011;11112;51.270;7.224;2023-02-25T00:43:43;19.05;;;3.10;;
21894;SDS011;11112;51.270;7.224;2023-02-25T00:46:15;21.38;;;3.20;;
21894;SDS011;11112;51.270;7.224;2023-02-25T00:48:42;18.48;;;3.40;;
21894;SDS011;11112;51.270;7.224;2023-02-25T00:51:11;15.32;;;2.80;;
21894;SDS011;11112;51.270;7.224;2023-02-25T00:53:41;17.58;;;3.60;;
21894;SDS011;11112;51.270;7.224;2023-02-25T00:56:09;20.13;;;3.70;;
21894;SDS011;11112;51.270;7.224;2023-02-25T00:58:41;18.48;;;3.42;;
21894;SDS011;11112;51.270;7.224;2023-02-25T01:01:15;17.50;;;3.45;;
21894;SDS011;11112;51.270;7.224;2023-02-25T01:03:46;21.63;;;4.45;;
21894;SDS011;11112;51.270;7.224;2023-02-25T01:06:18;18.67;;;3.70;;
21894;SDS011;11112;51.270;7.224;2023-02-25T01:08:45;17.17;;;4.18;;
21894;SDS011;11112;51.270;7.224;2023-02-25T01:11:14;21.13;;;4.05;;
21894;SDS011;11112;51.270;7.224;2023-02-25T01:13:45;17.25;;;4.05;;
21894;SDS011;11112;51.270;7.224;2023-02-25T01:16:14;23.70;;;4.80;;
21894;SDS011;11112;51.270;7.224;2023-02-25T01:18:45;16.95;;;4.20;;
21894;SDS011;11112;51.270;7.224;2023-02-25T01:21:16;27.15;;;4.63;;
21894;SDS011;11112;51.270;7.224;2023-02-25T01:23:52;18.33;;;4.20;;
21894;SDS011;11112;51.270;7.224;2023-02-25T01:26:24;19.38;;;4.45;;
21894;SDS011;11112;51.270;7.224;2023-02-25T01:28:53;21.80;;;4.38;;
21894;SDS011;11112;51.270;7.224;2023-02-25T01:31:21;19.45;;;4.10;;
21894;SDS011;11112;51.270;7.224;2023-02-25T01:33:53;23.42;;;4.10;;
21894;SDS011;11112;51.270;7.224;2023-02-25T01:36:24;21.85;;;4.30;;
21894;SDS011;11112;51.270;7.224;2023-02-25T01:38:51;20.48;;;4.57;;
21894;SDS011;11112;51.270;7.224;2023-02-25T01:41:20;20.90;;;4.88;;
21894;SDS011;11112;51.270;7.224;2023-02-25T01:44:01;21.42;;;5.43;;
21894;SDS011;11112;51.270;7.224;2023-02-25T01:46:34;19.58;;;5.10;;
21894;SDS011;11112;51.270;7.224;2023-02-25T01:49:02;23.48;;;5.63;;
21894;SDS011;11112;51.270;7.224;2023-02-25T01:51:35;20.40;;;6.50;;
21894;SDS011;11112;51.270;7.224;2023-02-25T01:54:03;22.70;;;6.05;;
21894;SDS011;11112;51.270;7.224;2023-02-25T01:56:35;20.80;;;6.38;;
21894;SDS011;11112;51.270;7.224;2023-02-25T01:59:07;23.13;;;6.35;;
21894;SDS011;11112;51.270;7.224;2023-02-25T02:01:35;20.73;;;6.25;;
21894;SDS011;11112;51.270;7.224;2023-02-25T02:04:06;21.98;;;7.35;;
21894;SDS011;11112;51.270;7.224;2023-02-25T02:06:38;19.10;;;6.50;;
21894;SDS011;11112;51.270;7.224;2023-02-25T02:09:08;18.67;;;6.28;;
21894;SDS011;11112;51.270;7.224;2023-02-25T02:11:38;25.33;;;7.82;;
21894;SDS011;11112;51.270;7.224;2023-02-25T02:14:06;28.48;;;8.10;;
21894;SDS011;11112;51.270;7.224;2023-02-25T02:16:43;23.52;;;7.70;;
21894;SDS011;11112;51.270;7.224;2023-02-25T02:19:51;22.88;;;7.65;;
21894;SDS011;11112;51.270;7.224;2023-02-25T02:22:45;20.73;;;7.72;;
21894;SDS011;11112;51.270;7.224;2023-02-25T02:28:59;20.48;;;6.68;;
21894;SDS011;11112;51.270;7.224;2023-02-25T02:32:05;20.90;;;7.32;;
21894;SDS011;11112;51.270;7.224;2023-02-25T02:34:40;22.38;;;6.88;;
21894;SDS011;11112;51.270;7.224;2023-02-25T02:37:22;20.42;;;6.60;;
21894;SDS011;11112;51.270;7.224;2023-02-25T02:39:59;19.83;;;6.13;;
21894;SDS011;11112;51.270;7.224;2023-02-25T02:42:48;21.48;;;6.65;;
21894;SDS011;11112;51.270;7.224;2023-02-25T02:45:30;20.23;;;6.40;;
21894;SDS011;11112;51.270;7.224;2023-02-25T02:48:07;19.40;;;6.63;;
21894;SDS011;11112;51.270;7.224;2023-02-25T02:50:39;21.25;;;6.97;;
21894;SDS011;11112;51.270;7.224;2023-02-25T02:53:12;22.50;;;6.80;;
21894;SDS011;11112;51.270;7.224;2023-02-25T02:55:45;22.17;;;7.13;;
21894;SDS011;11112;51.270;7.224;2023-02-25T02:58:16;17.70;;;6.85;;
21894;SDS011;11112;51.270;7.224;2023-02-25T03:00:49;20.00;;;7.18;;
21894;SDS011;11112;51.270;7.224;2023-02-25T03:03:26;19.27;;;6.95;;
21894;SDS011;11112;51.270;7.224;2023-02-25T03:06:02;24.15;;;7.10;;
21894;SDS011;11112;51.270;7.224;2023-02-25T03:08:35;22.67;;;7.70;;
21894;SDS011;11112;51.270;7.224;2023-02-25T03:11:10;21.00;;;7.00;;
21894;SDS011;11112;51.270;7.224;2023-02-25T03:13:37;23.88;;;7.20;;
21894;SDS011;11112;51.270;7.224;2023-02-25T03:16:06;23.23;;;7.65;;
21894;SDS011;11112;51.270;7.224;2023-02-25T03:18:41;23.58;;;8.27;;
21894;SDS011;11112;51.270;7.224;2023-02-25T03:21:17;23.75;;;7.85;;
21894;SDS011;11112;51.270;7.224;2023-02-25T03:23:48;22.73;;;7.68;;
21894;SDS011;11112;51.270;7.224;2023-02-25T03:26:19;22.02;;;7.50;;
21894;SDS011;11112;51.270;7.224;2023-02-25T03:28:49;24.25;;;7.22;;
21894;SDS011;11112;51.270;7.224;2023-02-25T03:31:18;22.17;;;7.25;;
21894;SDS011;11112;51.270;7.224;2023-02-25T03:33:53;23.95;;;7.32;;
21894;SDS011;11112;51.270;7.224;2023-02-25T03:36:26;22.10;;;7.70;;
21894;SDS011;11112;51.270;7.224;2023-02-25T03:38:58;21.35;;;7.57;;
21894;SDS011;11112;51.270;7.224;2023-02-25T03:41:34;25.08;;;7.43;;
21894;SDS011;11112;51.270;7.224;2023-02-25T03:44:10;18.88;;;7.85;;
21894;SDS011;11112;51.270;7.224;2023-02-25T03:46:42;22.20;;;8.70;;
21894;SDS011;11112;51.270;7.224;2023-02-25T03:49:14;19.52;;;9.25;;
21894;SDS011;11112;51.270;7.224;2023-02-25T03:51:54;25.80;;;9.15;;
21894;SDS011;11112;51.270;7.224;2023-02-25T03:54:27;22.30;;;9.07;;
21894;SDS011;11112;51.270;7.224;2023-02-25T03:56:56;24.25;;;9.50;;
21894;SDS011;11112;51.270;7.224;2023-02-25T03:59:23;21.35;;;9.30;;
21894;SDS011;11112;51.270;7.224;2023-02-25T04:01:52;27.60;;;9.60;;
21894;SDS011;11112;51.270;7.224;2023-02-25T04:04:22;25.60;;;9.25;;
21894;SDS011;11112;51.270;7.224;2023-02-25T04:06:50;25.15;;;9.55;;
21894;SDS011;11112;51.270;7.224;2023-02-25T04:09:17;23.63;;;9.68;;
21894;SDS011;11112;51.270;7.224;2023-02-25T04:11:45;26.20;;;9.40;;
21894;SDS011;11112;51.270;7.224;2023-02-25T04:14:14;26.10;;;9.13;;
21894;SDS011;11112;51.270;7.224;2023-02-25T04:16:42;25.83;;;9.23;;
21894;SDS011;11112;51.270;7.224;2023-02-25T04:19:12;24.08;;;8.90;;
21894;SDS011;11112;51.270;7.224;2023-02-25T04:21:41;26.58;;;8.48;;
21894;SDS011;11112;51.270;7.224;2023-02-25T04:24:12;19.63;;;8.77;;
21894;SDS011;11112;51.270;7.224;2023-02-25T04:26:40;22.20;;;9.38;;
21894;SDS011;11112;51.270;7.224;2023-02-25T04:29:09;25.42;;;9.88;;
21894;SDS011;11112;51.270;7.224;2023-02-25T04:31:38;23.90;;;9.60;;
21894;SDS011;11112;51.270;7.224;2023-02-25T04:34:06;27.90;;;10.57;;
21894;SDS011;11112;51.270;7.224;2023-02-25T04:36:35;24.08;;;10.63;;
21894;SDS011;11112;51.270;7.224;2023-02-25T04:39:05;29.17;;;11.35;;
21894;SDS011;11112;51.270;7.224;2023-02-25T04:41:34;27.63;;;11.18;;
21894;SDS011;11112;51.270;7.224;2023-02-25T04:44:03;29.70;;;11.20;;
21894;SDS011;11112;51.270;7.224;2023-02-25T04:46:33;28.98;;;11.65;;
21894;SDS011;11112;51.270;7.224;2023-02-25T04:49:05;26.48;;;10.77;;
21894;SDS011;11112;51.270;7.224;2023-02-25T04:51:36;25.75;;;10.60;;
21894;SDS011;11112;51.270;7.224;2023-02-25T04:54:06;29.80;;;10.65;;
21894;SDS011;11112;51.270;7.224;2023-02-25T04:56:36;23.48;;;9.60;;
21894;SDS011;11112;51.270;7.224;2023-02-25T04:59:04;22.10;;;9.85;;
21894;SDS011;11112;51.270;7.224;2023-02-25T05:01:35;28.88;;;9.13;;
21894;SDS011;11112;51.270;7.224;2023-02-25T05:04:03;26.10;;;9.02;;
21894;SDS011;11112;51.270;7.224;2023-02-25T05:06:32;26.52;;;7.75;;
21894;SDS011;11112;51.270;7.224;2023-02-25T05:09:00;28.42;;;7.85;;
21894;SDS011;11112;51.270;7.224;2023-02-25T05:11:31;22.85;;;6.30;;
21894;SDS011;11112;51.270;7.224;2023-02-25T05:13:58;23.52;;;6.60;;
21894;SDS011;11112;51.270;7.224;2023-02-25T05:16:27;25.52;;;6.47;;
21894;SDS011;11112;51.270;7.224;2023-02-25T05:18:54;23.98;;;6.60;;
21894;SDS011;11112;51.270;7.224;2023-02-25T05:21:22;21.23;;;6.65;;
21894;SDS011;11112;51.270;7.224;2023-02-25T05:23:52;23.15;;;6.60;;
21894;SDS011;11112;51.270;7.224;2023-02-25T05:26:21;27.17;;;6.60;;
21894;SDS011;11112;51.270;7.224;2023-02-25T05:28:52;29.35;;;6.72;;
21894;SDS011;11112;51.270;7.224;2023-02-25T05:31:24;22.77;;;6.68;;
21894;SDS011;11112;51.270;7.224;2023-02-25T05:33:52;21.77;;;5.82;;
21894;SDS011;11112;51.270;7.224;2023-02-25T05:36:20;21.73;;;6.43;;
21894;SDS011;11112;51.270;7.224;2023-02-25T05:38:51;21.30;;;6.47;;
21894;SDS011;11112;51.270;7.224;2023-02-25T05:41:19;22.65;;;5.90;;
21894;SDS011;11112;51.270;7.224;2023-02-25T05:43:47;25.48;;;5.30;;
21894;SDS011;11112;51.270;7.224;2023-02-25T05:46:15;21.23;;;4.97;;
21894;SDS011;11112;51.270;7.224;2023-02-25T05:48:44;26.38;;;4.80;;
21894;SDS011;11112;51.270;7.224;2023-02-25T05:51:14;16.77;;;4.25;;
21894;SDS011;11112;51.270;7.224;2023-02-25T05:53:46;21.95;;;4.65;;
21894;SDS011;11112;51.270;7.224;2023-02-25T05:56:15;20.55;;;4.13;;
21894;SDS011;11112;51.270;7.224;2023-02-25T05:58:45;17.83;;;4.43;;
21894;SDS011;11112;51.270;7.224;2023-02-25T06:01:20;23.85;;;4.40;;
21894;SDS011;11112;51.270;7.224;2023-02-25T06:03:51;26.08;;;3.85;;
21894;SDS011;11112;51.270;7.224;2023-02-25T06:06:22;21.83;;;3.80;;
21894;SDS011;11112;51.270;7.224;2023-02-25T06:08:51;22.80;;;4.13;;
21894;SDS011;11112;51.270;7.224;2023-02-25T06:11:20;24.80;;;3.83;;
21894;SDS011;11112;51.270;7.224;2023-02-25T06:13:50;21.75;;;4.32;;
21894;SDS011;11112;51.270;7.224;2023-02-25T06:16:21;20.25;;;4.65;;
21894;SDS011;11112;51.270;7.224;2023-02-25T06:18:50;21.30;;;4.95;;
21894;SDS011;11112;51.270;7.224;2023-02-25T06:21:18;19.63;;;5.00;;
21894;SDS011;11112;51.270;7.224;2023-02-25T06:23:46;21.15;;;4.60;;
21894;SDS011;11112;51.270;7.224;2023-02-25T06:26:15;24.08;;;5.28;;
21894;SDS011;11112;51.270;7.224;2023-02-25T06:28:43;24.40;;;5.53;;
21894;SDS011;11112;51.270;7.224;2023-02-25T06:31:13;19.92;;;5.25;;
21894;SDS011;11112;51.270;7.224;2023-02-25T06:33:44;23.90;;;5.90;;
21894;SDS011;11112;51.270;7.224;2023-02-25T06:36:12;24.65;;;6.45;;
21894;SDS011;11112;51.270;7.224;2023-02-25T06:38:43;28.27;;;8.25;;
21894;SDS011;11112;51.270;7.224;2023-02-25T06:41:12;20.63;;;7.53;;
21894;SDS011;11112;51.270;7.224;2023-02-25T06:43:43;25.40;;;7.18;;
21894;SDS011;11112;51.270;7.224;2023-02-25T06:46:17;24.30;;;7.20;;
21894;SDS011;11112;51.270;7.224;2023-02-25T06:48:49;22.65;;;6.72;;
21894;SDS011;11112;51.270;7.224;2023-02-25T06:51:17;23.08;;;6.55;;
21894;SDS011;11112;51.270;7.224;2023-02-25T06:53:46;20.02;;;6.60;;
21894;SDS011;11112;51.270;7.224;2023-02-25T06:56:15;30.25;;;6.45;;
21894;SDS011;11112;51.270;7.224;2023-02-25T06:58:44;22.35;;;5.43;;
21894;SDS011;11112;51.270;7.224;2023-02-25T07:01:16;21.73;;;5.55;;
21894;SDS011;11112;51.270;7.224;2023-02-25T07:03:46;18.60;;;5.18;;
21894;SDS011;11112;51.270;7.224;2023-02-25T07:06:16;23.58;;;4.90;;
21894;SDS011;11112;51.270;7.224;2023-02-25T07:08:44;21.23;;;4.55;;
21894;SDS011;11112;51.270;7.224;2023-02-25T07:11:13;27.23;;;5.18;;
21894;SDS011;11112;51.270;7.224;2023-02-25T07:13:53;19.30;;;4.25;;
21894;SDS011;11112;51.270;7.224;2023-02-25T07:16:21;25.35;;;4.45;;
21894;SDS011;11112;51.270;7.224;2023-02-25T07:18:49;21.58;;;4.30;;
21894;SDS011;11112;51.270;7.224;2023-02-25T07:21:19;26.88;;;4.70;;
21894;SDS011;11112;51.270;7.224;2023-02-25T07:23:47;21.92;;;4.57;;
21894;SDS011;11112;51.270;7.224;2023-02-25T07:26:15;20.67;;;3.75;;
21894;SDS011;11112;51.270;7.224;2023-02-25T07:28:44;24.90;;;4.35;;
21894;SDS011;11112;51.270;7.224;2023-02-25T07:31:14;22.42;;;4.72;;
21894;SDS011;11112;51.270;7.224;2023-02-25T07:33:45;24.15;;;4.85;;
21894;SDS011;11112;51.270;7.224;2023-02-25T07:36:14;20.80;;;4.47;;
21894;SDS011;11112;51.270;7.224;2023-02-25T07:38:43;23.90;;;4.43;;
21894;SDS011;11112;51.270;7.224;2023-02-25T07:41:13;23.73;;;4.45;;
21894;SDS011;11112;51.270;7.224;2023-02-25T07:43:43;23.95;;;4.40;;
21894;SDS011;11112;51.270;7.224;2023-02-25T07:46:11;22.70;;;4.55;;
21894;SDS011;11112;51.270;7.224;2023-02-25T07:48:39;26.65;;;4.35;;
21894;SDS011;11112;51.270;7.224;2023-02-25T07:51:09;22.30;;;4.60;;
21894;SDS011;11112;51.270;7.224;2023-02-25T07:53:43;23.73;;;4.50;;
21894;SDS011;11112;51.270;7.224;2023-02-25T07:56:15;23.00;;;4.63;;
21894;SDS011;11112;51.270;7.224;2023-02-25T07:58:45;27.48;;;5.85;;
21894;SDS011;11112;51.270;7.224;2023-02-25T08:01:17;29.13;;;7.22;;
21894;SDS011;11112;51.270;7.224;2023-02-25T08:03:49;29.75;;;6.70;;
21894;SDS011;11112;51.270;7.224;2023-02-25T08:06:16;25.23;;;6.20;;
21894;SDS011;11112;51.270;7.224;2023-02-25T08:08:47;27.92;;;5.57;;
21894;SDS011;11112;51.270;7.224;2023-02-25T08:11:16;22.85;;;4.47;;
21894;SDS011;11112;51.270;7.224;2023-02-25T08:13:47;20.55;;;4.35;;
21894;SDS011;11112;51.270;7.224;2023-02-25T08:16:16;21.23;;;4.65;;
21894;SDS011;11112;51.270;7.224;2023-02-25T08:18:46;21.20;;;4.75;;
21894;SDS011;11112;51.270;7.224;2023-02-25T08:21:15;23.10;;;5.00;;
21894;SDS011;11112;51.270;7.224;2023-02-25T08:23:46;22.58;;;5.10;;
21894;SDS011;11112;51.270;7.224;2023-02-25T08:26:14;22.80;;;5.70;;
21894;SDS011;11112;51.270;7.224;2023-02-25T08:28:42;19.65;;;5.22;;
21894;SDS011;11112;51.270;7.224;2023-02-25T08:31:10;18.48;;;4.88;;
21894;SDS011;11112;51.270;7.224;2023-02-25T08:33:38;21.73;;;5.10;;
21894;SDS011;11112;51.270;7.224;2023-02-25T08:36:12;17.75;;;5.35;;
21894;SDS011;11112;51.270;7.224;2023-02-25T08:38:44;16.95;;;5.60;;
21894;SDS011;11112;51.270;7.224;2023-02-25T08:41:14;17.92;;;5.30;;
21894;SDS011;11112;51.270;7.224;2023-02-25T08:43:42;16.48;;;5.32;;
21894;SDS011;11112;51.270;7.224;2023-02-25T08:46:13;18.25;;;5.75;;
21894;SDS011;11112;51.270;7.224;2023-02-25T08:48:41;19.08;;;5.63;;
21894;SDS011;11112;51.270;7.224;2023-02-25T08:51:10;17.75;;;5.22;;
21894;SDS011;11112;51.270;7.224;2023-02-25T08:53:39;20.58;;;6.20;;
21894;SDS011;11112;51.270;7.224;2023-02-25T08:56:10;27.23;;;8.45;;
21894;SDS011;11112;51.270;7.224;2023-02-25T08:58:40;47.88;;;15.10;;
21894;SDS011;11112;51.270;7.224;2023-02-25T09:01:10;23.58;;;7.32;;
21894;SDS011;11112;51.270;7.224;2023-02-25T09:03:40;24.30;;;6.30;;
21894;SDS011;11112;51.270;7.224;2023-02-25T09:06:15;19.33;;;5.20;;
21894;SDS011;11112;51.270;7.224;2023-02-25T09:08:42;16.65;;;5.53;;
21894;SDS011;11112;51.270;7.224;2023-02-25T09:11:11;18.73;;;6.45;;
21894;SDS011;11112;51.270;7.224;2023-02-25T09:13:40;19.55;;;6.80;;
21894;SDS011;11112;51.270;7.224;2023-02-25T09:16:08;19.70;;;6.65;;
21894;SDS011;11112;51.270;7.224;2023-02-25T09:18:39;20.75;;;6.65;;
21894;SDS011;11112;51.270;7.224;2023-02-25T09:21:07;20.00;;;6.75;;
21894;SDS011;11112;51.270;7.224;2023-02-25T09:23:35;18.38;;;6.47;;
21894;SDS011;11112;51.270;7.224;2023-02-25T09:26:04;21.25;;;6.63;;
21894;SDS011;11112;51.270;7.224;2023-02-25T09:28:35;21.92;;;6.43;;
21894;SDS011;11112;51.270;7.224;2023-02-25T09:31:03;18.35;;;6.40;;
21894;SDS011;11112;51.270;7.224;2023-02-25T09:33:31;22.10;;;6.80;;
21894;SDS011;11112;51.270;7.224;2023-02-25T09:36:02;19.90;;;6.38;;
21894;SDS011;11112;51.270;7.224;2023-02-25T09:38:34;20.23;;;7.05;;
21894;SDS011;11112;51.270;7.224;2023-02-25T09:41:02;20.10;;;6.88;;
21894;SDS011;11112;51.270;7.224;2023-02-25T09:43:53;17.10;;;6.18;;
21894;SDS011;11112;51.270;7.224;2023-02-25T09:46:31;19.77;;;6.20;;
21894;SDS011;11112;51.270;7.224;2023-02-25T09:49:09;17.40;;;6.30;;
21894;SDS011;11112;51.270;7.224;2023-02-25T09:51:45;15.25;;;6.32;;
21894;SDS011;11112;51.270;7.224;2023-02-25T09:54:21;20.27;;;6.35;;
21894;SDS011;11112;51.270;7.224;2023-02-25T09:56:55;16.45;;;6.13;;
21894;SDS011;11112;51.270;7.224;2023-02-25T09:59:28;14.10;;;5.45;;
21894;SDS011;11112;51.270;7.224;2023-02-25T10:01:59;16.45;;;5.25;;
21894;SDS011;11112;51.270;7.224;2023-02-25T10:04:42;15.98;;;5.05;;
21894;SDS011;11112;51.270;7.224;2023-02-25T10:07:20;17.02;;;5.45;;
21894;SDS011;11112;51.270;7.224;2023-02-25T10:09:53;19.83;;;5.78;;
21894;SDS011;11112;51.270;7.224;2023-02-25T10:12:28;14.98;;;4.97;;
21894;SDS011;11112;51.270;7.224;2023-02-25T10:15:11;18.65;;;5.30;;
21894;SDS011;11112;51.270;7.224;2023-02-25T10:17:58;16.10;;;5.22;;
21894;SDS011;11112;51.270;7.224;2023-02-25T10:20:41;15.05;;;4.38;;
21894;SDS011;11112;51.270;7.224;2023-02-25T10:23:21;16.73;;;4.70;;
21894;SDS011;11112;51.270;7.224;2023-02-25T10:26:03;14.65;;;4.15;;
21894;SDS011;11112;51.270;7.224;2023-02-25T10:28:39;15.50;;;3.80;;
21894;SDS011;11112;51.270;7.224;2023-02-25T10:31:11;11.32;;;3.90;;
21894;SDS011;11112;51.270;7.224;2023-02-25T10:33:43;13.40;;;4.25;;
21894;SDS011;11112;51.270;7.224;2023-02-25T10:36:14;17.60;;;4.63;;
21894;SDS011;11112;51.270;7.224;2023-02-25T10:38:45;11.70;;;3.70;;
21894;SDS011;11112;51.270;7.224;2023-02-25T10:41:14;10.38;;;3.47;;
21894;SDS011;11112;51.270;7.224;2023-02-25T10:43:44;10.88;;;3.20;;
21894;SDS011;11112;51.270;7.224;2023-02-25T10:46:14;9.90;;;3.33;;
21894;SDS011;11112;51.270;7.224;2023-02-25T10:48:45;10.80;;;3.00;;
21894;SDS011;11112;51.270;7.224;2023-02-25T10:51:20;9.93;;;2.90;;
21894;SDS011;11112;51.270;7.224;2023-02-25T10:54:00;10.73;;;3.00;;
21894;SDS011;11112;51.270;7.224;2023-02-25T10:56:32;9.27;;;2.35;;
21894;SDS011;11112;51.270;7.224;2023-02-25T10:59:18;7.53;;;2.05;;
21894;SDS011;11112;51.270;7.224;2023-02-25T11:01:53;4.05;;;1.38;;
21894;SDS011;11112;51.270;7.224;2023-02-25T11:04:22;5.05;;;1.27;;
21894;SDS011;11112;51.270;7.224;2023-02-25T11:09:33;6.60;;;1.48;;
21894;SDS011;11112;51.270;7.224;2023-02-25T11:12:08;5.25;;;1.30;;
21894;SDS011;11112;51.270;7.224;2023-02-25T11:14:44;5.40;;;1.20;;
21894;SDS011;11112;51.270;7.224;2023-02-25T11:17:13;6.57;;;1.50;;
21894;SDS011;11112;51.270;7.224;2023-02-25T11:19:45;6.28;;;1.40;;
21894;SDS011;11112;51.270;7.224;2023-02-25T11:22:16;4.97;;;1.42;;
21894;SDS011;11112;51.270;7.224;2023-02-25T11:24:53;5.95;;;1.13;;
21894;SDS011;11112;51.270;7.224;2023-02-25T11:27:25;4.75;;;1.60;;
21894;SDS011;11112;51.270;7.224;2023-02-25T11:30:01;11.38;;;1.95;;
21894;SDS011;11112;51.270;7.224;2023-02-25T11:32:33;9.57;;;1.38;;
21894;SDS011;11112;51.270;7.224;2023-02-25T11:37:41;8.30;;;1.73;;
21894;SDS011;11112;51.270;7.224;2023-02-25T11:40:19;12.57;;;1.63;;
21894;SDS011;11112;51.270;7.224;2023-02-25T11:43:00;9.13;;;1.63;;
21894;SDS011;11112;51.270;7.224;2023-02-25T11:45:45;10.13;;;1.75;;
21894;SDS011;11112;51.270;7.224;2023-02-25T11:48:24;7.00;;;1.65;;
21894;SDS011;11112;51.270;7.224;2023-02-25T11:53:40;7.45;;;1.55;;
21894;SDS011;11112;51.270;7.224;2023-02-25T11:56:21;12.63;;;2.05;;
21894;SDS011;11112;51.270;7.224;2023-02-25T11:58:59;8.40;;;1.80;;
21894;SDS011;11112;51.270;7.224;2023-02-25T12:01:46;10.30;;;1.83;;
21894;SDS011;11112;51.270;7.224;2023-02-25T12:07:56;10.65;;;2.25;;
21894;SDS011;11112;51.270;7.224;2023-02-25T12:14:17;8.95;;;1.90;;
21894;SDS011;11112;51.270;7.224;2023-02-25T12:24:12;9.02;;;1.80;;
21894;SDS011;11112;51.270;7.224;2023-02-25T12:30:11;7.20;;;1.83;;
21894;SDS011;11112;51.270;7.224;2023-02-25T12:33:29;7.93;;;1.90;;
21894;SDS011;11112;51.270;7.224;2023-02-25T12:36:22;10.38;;;2.17;;
21894;SDS011;11112;51.270;7.224;2023-02-25T12:39:11;10.30;;;2.15;;
21894;SDS011;11112;51.270;7.224;2023-02-25T12:42:09;9.98;;;2.63;;
21894;SDS011;11112;51.270;7.224;2023-02-25T12:44:57;8.27;;;2.38;;
21894;SDS011;11112;51.270;7.224;2023-02-25T12:47:43;7.50;;;1.67;;
21894;SDS011;11112;51.270;7.224;2023-02-25T12:50:37;7.47;;;1.67;;
21894;SDS011;11112;51.270;7.224;2023-02-25T12:53:32;11.40;;;2.10;;
21894;SDS011;11112;51.270;7.224;2023-02-25T12:59:25;8.68;;;2.00;;
21894;SDS011;11112;51.270;7.224;2023-02-25T13:05:38;10.07;;;1.70;;
21894;SDS011;11112;51.270;7.224;2023-02-25T13:11:56;9.10;;;1.85;;
21894;SDS011;11112;51.270;7.224;2023-02-25T13:20:49;8.35;;;1.60;;
21894;SDS011;11112;51.270;7.224;2023-02-25T13:23:40;9.70;;;1.58;;
21894;SDS011;11112;51.270;7.224;2023-02-25T13:26:46;11.05;;;1.48;;
21894;SDS011;11112;51.270;7.224;2023-02-25T13:29:56;8.93;;;1.70;;
21894;SDS011;11112;51.270;7.224;2023-02-25T13:32:43;6.10;;;1.60;;
21894;SDS011;11112;51.270;7.224;2023-02-25T13:35:20;10.73;;;2.28;;
21894;SDS011;11112;51.270;7.224;2023-02-25T13:38:04;10.57;;;1.90;;
21894;SDS011;11112;51.270;7.224;2023-02-25T13:40:50;9.05;;;1.70;;
21894;SDS011;11112;51.270;7.224;2023-02-25T13:47:02;6.95;;;2.25;;
21894;SDS011;11112;51.270;7.224;2023-02-25T13:49:52;8.60;;;1.80;;
21894;SDS011;11112;51.270;7.224;2023-02-25T14:02:29;9.75;;;1.80;;
21894;SDS011;11112;51.270;7.224;2023-02-25T14:05:19;7.82;;;1.75;;
21894;SDS011;11112;51.270;7.224;2023-02-25T14:08:23;8.45;;;1.92;;
21894;SDS011;11112;51.270;7.224;2023-02-25T14:11:14;7.93;;;1.50;;
21894;SDS011;11112;51.270;7.224;2023-02-25T14:14:00;9.65;;;1.25;;
21894;SDS011;11112;51.270;7.224;2023-02-25T14:17:33;7.13;;;1.20;;
21894;SDS011;11112;51.270;7.224;2023-02-25T14:20:16;3.42;;;1.00;;
21894;SDS011;11112;51.270;7.224;2023-02-25T14:23:09;3.65;;;0.85;;
21894;SDS011;11112;51.270;7.224;2023-02-25T14:25:53;4.50;;;0.80;;
21894;SDS011;11112;51.270;7.224;2023-02-25T14:28:46;5.25;;;0.77;;
21894;SDS011;11112;51.270;7.224;2023-02-25T14:31:41;3.47;;;0.85;;
21894;SDS011;11112;51.270;7.224;2023-02-25T14:34:44;3.00;;;0.70;;
21894;SDS011;11112;51.270;7.224;2023-02-25T14:37:34;3.08;;;0.80;;
21894;SDS011;11112;51.270;7.224;2023-02-25T14:40:16;5.63;;;0.93;;
21894;SDS011;11112;51.270;7.224;2023-02-25T14:46:08;2.65;;;0.70;;
21894;SDS011;11112;51.270;7.224;2023-02-25T14:48:52;3.20;;;0.75;;
21894;SDS011;11112;51.270;7.224;2023-02-25T14:51:33;3.25;;;0.60;;
21894;SDS011;11112;51.270;7.224;2023-02-25T14:57:35;3.15;;;0.70;;
21894;SDS011;11112;51.270;7.224;2023-02-25T15:04:08;3.17;;;0.60;;
21894;SDS011;11112;51.270;7.224;2023-02-25T15:06:58;4.70;;;0.82;;
21894;SDS011;11112;51.270;7.224;2023-02-25T15:09:45;2.90;;;0.63;;
21894;SDS011;11112;51.270;7.224;2023-02-25T15:12:47;4.30;;;0.98;;
21894;SDS011;11112;51.270;7.224;2023-02-25T15:15:56;5.68;;;0.95;;
21894;SDS011;11112;51.270;7.224;2023-02-25T15:19:12;5.00;;;0.82;;
21894;SDS011;11112;51.270;7.224;2023-02-25T15:22:23;6.18;;;0.90;;
21894;SDS011;11112;51.270;7.224;2023-02-25T15:24:53;3.92;;;0.90;;
21894;SDS011;11112;51.270;7.224;2023-02-25T15:28:03;5.55;;;1.35;;
21894;SDS011;11112;51.270;7.224;2023-02-25T15:37:24;3.65;;;0.85;;
21894;SDS011;11112;51.270;7.224;2023-02-25T15:40:40;3.70;;;1.00;;
21894;SDS011;11112;51.270;7.224;2023-02-25T15:46:29;3.88;;;0.80;;
21894;SDS011;11112;51.270;7.224;2023-02-25T15:49:13;6.38;;;1.38;;
21894;SDS011;11112;51.270;7.224;2023-02-25T15:51:49;4.70;;;1.30;;
21894;SDS011;11112;51.270;7.224;2023-02-25T15:57:31;6.47;;;1.10;;
21894;SDS011;11112;51.270;7.224;2023-02-25T16:03:26;4.70;;;1.10;;
21894;SDS011;11112;51.270;7.224;2023-02-25T16:06:10;6.40;;;0.90;;
21894;SDS011;11112;51.270;7.224;2023-02-25T16:08:44;5.43;;;1.30;;
21894;SDS011;11112;51.270;7.224;2023-02-25T16:11:23;4.60;;;1.10;;
21894;SDS011;11112;51.270;7.224;2023-02-25T16:13:58;11.10;;;1.50;;
21894;SDS011;11112;51.270;7.224;2023-02-25T16:16:29;5.32;;;1.00;;
21894;SDS011;11112;51.270;7.224;2023-02-25T16:18:58;6.05;;;1.25;;
21894;SDS011;11112;51.270;7.224;2023-02-25T16:21:36;4.53;;;1.20;;
21894;SDS011;11112;51.270;7.224;2023-02-25T16:24:10;6.43;;;1.13;;
21894;SDS011;11112;51.270;7.224;2023-02-25T16:26:40;6.15;;;1.40;;
21894;SDS011;11112;51.270;7.224;2023-02-25T16:29:26;4.93;;;1.40;;
21894;SDS011;11112;51.270;7.224;2023-02-25T16:32:07;6.35;;;1.38;;
21894;SDS011;11112;51.270;7.224;2023-02-25T16:34:44;5.13;;;1.17;;
21894;SDS011;11112;51.270;7.224;2023-02-25T16:37:19;7.95;;;1.40;;
21894;SDS011;11112;51.270;7.224;2023-02-25T16:39:55;4.60;;;1.10;;
21894;SDS011;11112;51.270;7.224;2023-02-25T16:42:24;4.80;;;1.17;;
21894;SDS011;11112;51.270;7.224;2023-02-25T16:44:54;5.72;;;1.05;;
21894;SDS011;11112;51.270;7.224;2023-02-25T16:47:26;5.30;;;1.40;;
21894;SDS011;11112;51.270;7.224;2023-02-25T16:49:57;5.32;;;1.13;;